createdAt,value
2019-01-11T00:00:02.536Z,88.22
2019-01-11T00:05:03.320Z,88.29
2019-01-11T00:10:02.723Z,88.16
2019-01-11T00:15:03.068Z,88.08
2019-01-11T00:20:03.690Z,88.07
2019-01-11T00:25:02.328Z,88.06
2019-01-11T00:30:02.779Z,88.08
2019-01-11T00:35:03.212Z,88.1
2019-01-11T00:40:01.863Z,88.12
2019-01-11T00:45:03.276Z,88.16
2019-01-11T00:50:02.726Z,88.19
2019-01-11T00:55:03.141Z,88.3
2019-01-11T01:00:02.472Z,88.33
2019-01-11T01:05:02.488Z,88.21
2019-01-11T01:10:02.909Z,88.14
2019-01-11T01:15:03.324Z,88.12
2019-01-11T01:20:02.686Z,88.13
2019-01-11T01:25:03.132Z,88.13
2019-01-11T01:30:02.543Z,88.14
2019-01-11T01:35:02.996Z,88.2
2019-01-11T01:40:02.416Z,88.21
2019-01-11T01:45:02.762Z,88.25
2019-01-11T01:50:03.130Z,88.31
2019-01-11T01:55:02.514Z,88.31
2019-01-11T02:00:02.957Z,88.26
2019-01-11T02:05:03.301Z,88.17
2019-01-11T02:10:02.710Z,88.17
2019-01-11T02:15:03.056Z,88.17
2019-01-11T02:20:02.476Z,88.18
2019-01-11T02:25:02.821Z,88.22
2019-01-11T02:30:03.172Z,88.24
2019-01-11T02:35:02.574Z,88.28
2019-01-11T02:40:03.024Z,88.3
2019-01-11T02:45:02.488Z,88.39
2019-01-11T02:50:02.886Z,88.39
2019-01-11T02:55:03.235Z,88.31
2019-01-11T03:00:01.846Z,88.24
2019-01-11T03:05:02.381Z,88.23
2019-01-11T03:10:02.847Z,88.23
2019-01-11T03:15:03.201Z,88.22
2019-01-11T03:20:02.576Z,88.26
2019-01-11T03:25:02.906Z,88.31
2019-01-11T03:30:03.277Z,88.32
2019-01-11T03:35:02.669Z,88.36
2019-01-11T03:40:03.117Z,88.41
2019-01-11T03:45:02.589Z,88.46
2019-01-11T03:50:03.020Z,88.42
2019-01-11T03:55:02.439Z,88.33
2019-01-11T04:00:02.777Z,88.27
2019-01-11T04:05:03.113Z,88.28
2019-01-11T04:10:02.495Z,88.28
2019-01-11T04:15:02.943Z,88.31
2019-01-11T04:20:03.405Z,88.34
2019-01-11T04:25:02.814Z,88.38
2019-01-11T04:30:03.251Z,88.38
2019-01-11T04:35:02.659Z,88.42
2019-01-11T04:40:03.114Z,88.49
2019-01-11T04:45:02.527Z,88.53
2019-01-11T04:50:09.290Z,88.47
2019-01-11T04:55:03.123Z,88.4
2019-01-11T05:00:02.745Z,88.37
2019-01-11T05:05:03.104Z,88.37
2019-01-11T05:10:02.594Z,88.37
2019-01-11T05:15:02.948Z,88.4
2019-01-11T05:20:03.386Z,88.46
2019-01-11T05:25:02.799Z,88.5
2019-01-11T05:30:02.635Z,88.5
2019-01-11T05:35:03.106Z,88.54
2019-01-11T05:40:02.485Z,88.56
2019-01-11T05:45:02.838Z,88.67
2019-01-11T05:50:03.285Z,88.65
2019-01-11T05:55:02.616Z,88.54
2019-01-11T06:00:02.943Z,88.49
2019-01-11T06:05:03.379Z,88.5
2019-01-11T06:10:03.162Z,88.5
2019-01-11T06:15:02.658Z,88.51
2019-01-11T06:20:03.068Z,88.53
2019-01-11T06:25:02.496Z,88.62
2019-01-11T06:30:02.933Z,88.63
2019-01-11T06:35:03.274Z,88.67
2019-01-11T06:40:02.691Z,88.7
2019-01-11T06:45:03.070Z,88.76
2019-01-11T06:50:02.490Z,88.83
2019-01-11T06:55:02.816Z,88.79
2019-01-11T07:00:03.545Z,88.72
2019-01-11T07:05:02.965Z,88.66
2019-01-11T07:10:02.381Z,88.68
2019-01-11T07:15:02.725Z,88.67
2019-01-11T07:20:05.732Z,88.68
2019-01-11T07:25:03.301Z,88.72
2019-01-11T07:30:02.718Z,88.75
2019-01-11T07:35:03.066Z,88.78
2019-01-11T07:40:02.539Z,88.78
2019-01-11T07:45:02.927Z,88.8
2019-01-11T07:50:03.269Z,88.81
2019-01-11T07:55:02.692Z,88.88
2019-01-11T08:00:03.405Z,88.93
2019-01-11T08:05:02.775Z,88.86
2019-01-11T08:10:03.200Z,88.83
2019-01-11T08:15:02.607Z,88.8
2019-01-11T08:20:02.953Z,88.81
2019-01-11T08:25:03.303Z,88.84
2019-01-11T08:30:03.020Z,88.85
2019-01-11T08:35:02.365Z,88.91
2019-01-11T08:40:02.104Z,88.94
2019-01-11T08:45:02.447Z,88.95
2019-01-11T08:50:02.852Z,88.97
2019-01-11T08:55:03.293Z,88.98
2019-01-11T09:00:02.713Z,88.97
2019-01-11T09:05:03.190Z,88.99
2019-01-11T09:10:02.714Z,89.0
2019-01-11T09:15:03.135Z,89.05
2019-01-11T09:20:02.531Z,89.09
2019-01-11T09:25:02.882Z,89.03
2019-01-11T09:30:03.329Z,89.0
2019-01-11T09:35:02.738Z,89.0
2019-01-11T09:40:03.187Z,89.06
2019-01-11T09:45:02.600Z,89.15
2019-01-11T09:50:02.979Z,89.26
2019-01-11T09:55:02.367Z,89.33
2019-01-11T10:00:02.842Z,89.35
2019-01-11T10:05:03.249Z,89.38
2019-01-11T10:10:02.669Z,89.38
2019-01-11T10:15:03.011Z,89.51
2019-01-11T10:20:02.436Z,89.59
2019-01-11T10:25:02.878Z,89.71
2019-01-11T10:30:03.317Z,89.74
2019-01-11T10:35:02.641Z,89.83
2019-01-11T10:40:03.071Z,89.9
2019-01-11T10:45:02.497Z,89.96
2019-01-11T10:50:02.845Z,89.97
2019-01-11T10:55:03.187Z,89.98
2019-01-11T11:00:02.587Z,89.98
2019-01-11T11:05:02.948Z,90.02
2019-01-11T11:10:02.353Z,90.02
2019-01-11T11:15:02.698Z,90.03
2019-01-11T11:20:03.143Z,90.04
2019-01-11T11:25:02.551Z,90.02
2019-01-11T11:30:02.899Z,90.04
2019-01-11T11:35:03.251Z,90.05
2019-01-11T11:40:02.663Z,90.04
2019-01-11T11:45:03.036Z,90.01
2019-01-11T11:50:02.453Z,90.01
2019-01-11T11:55:02.862Z,90.01
2019-01-11T12:00:03.201Z,90.01
2019-01-11T12:05:02.623Z,90.06
2019-01-11T12:10:03.101Z,90.04
2019-01-11T12:15:02.515Z,90.05
2019-01-11T12:20:02.923Z,90.06
2019-01-11T12:25:03.274Z,90.07
2019-01-11T12:30:02.592Z,90.1
2019-01-11T12:35:02.929Z,90.15
2019-01-11T12:40:02.349Z,90.15
2019-01-11T12:45:02.699Z,90.15
2019-01-11T12:50:03.129Z,90.11
2019-01-11T12:55:02.555Z,90.13
2019-01-11T13:00:03.009Z,90.17
2019-01-11T13:05:02.413Z,90.24
2019-01-11T13:10:02.851Z,90.24
2019-01-11T13:15:03.232Z,90.23
2019-01-11T13:20:02.612Z,90.21
2019-01-11T13:25:02.961Z,90.26
2019-01-11T13:30:03.394Z,90.29
2019-01-11T13:35:02.822Z,90.31
2019-01-11T13:40:02.500Z,90.31
2019-01-11T13:45:02.881Z,90.33
2019-01-11T13:50:03.222Z,90.31
2019-01-11T13:55:02.654Z,90.26
2019-01-11T14:00:02.981Z,90.24
2019-01-11T14:05:02.351Z,90.27
2019-01-11T14:10:02.867Z,90.27
2019-01-11T14:15:03.306Z,90.3
2019-01-11T14:20:02.636Z,90.31
2019-01-11T14:25:03.052Z,90.32
2019-01-11T14:30:02.469Z,90.35
2019-01-11T14:35:02.837Z,90.36
2019-01-11T14:40:03.287Z,90.35
2019-01-11T14:45:02.705Z,90.37
2019-01-11T14:50:03.115Z,90.37
2019-01-11T14:55:02.542Z,90.38
2019-01-11T15:00:02.875Z,90.36
2019-01-11T15:05:03.215Z,90.34
2019-01-11T15:10:02.630Z,90.33
2019-01-11T15:15:02.975Z,90.34
2019-01-11T15:20:02.389Z,90.35
2019-01-11T15:25:02.859Z,90.33
2019-01-11T15:30:03.284Z,90.33
2019-01-11T15:35:02.709Z,90.34
2019-01-11T15:40:03.173Z,90.36
2019-01-11T15:45:02.568Z,90.32
2019-01-11T15:50:02.907Z,90.31
2019-01-11T15:55:03.244Z,90.31
2019-01-11T16:00:02.676Z,90.32
2019-01-11T16:05:03.108Z,90.32
2019-01-11T16:10:02.532Z,90.33
2019-01-11T16:15:02.967Z,90.34
2019-01-11T16:20:02.299Z,90.34
2019-01-11T16:25:02.732Z,90.33
2019-01-11T16:30:03.067Z,90.36
2019-01-11T16:35:02.501Z,90.36
2019-01-11T16:40:02.937Z,90.38
2019-01-11T16:45:03.278Z,90.36
2019-01-11T16:50:02.683Z,90.36
2019-01-11T16:55:03.043Z,90.37
2019-01-11T17:00:02.448Z,90.37
2019-01-11T17:05:02.819Z,90.39
2019-01-11T17:10:03.254Z,90.41
2019-01-11T17:15:02.655Z,90.39
2019-01-11T17:20:03.015Z,90.41
2019-01-11T17:25:02.416Z,90.42
2019-01-11T17:30:02.760Z,90.42
2019-01-11T17:35:03.209Z,90.41
2019-01-11T17:40:02.610Z,90.42
2019-01-11T17:45:03.004Z,90.4
2019-01-11T17:50:02.416Z,90.4
2019-01-11T17:55:02.826Z,90.38
2019-01-11T18:00:03.273Z,90.4
2019-01-11T18:05:02.695Z,90.39
2019-01-11T18:10:03.180Z,90.38
2019-01-11T18:15:02.633Z,90.38
2019-01-11T18:20:03.411Z,90.38
2019-01-11T18:25:02.820Z,90.39
2019-01-11T18:30:03.153Z,90.38
2019-01-11T18:35:02.579Z,90.36
2019-01-11T18:40:03.031Z,90.37
2019-01-11T18:45:02.444Z,90.38
2019-01-11T18:50:02.781Z,90.37
2019-01-11T18:55:03.169Z,90.39
2019-01-11T19:00:02.536Z,90.41
2019-01-11T19:05:02.889Z,90.4
2019-01-11T19:10:03.331Z,90.41
2019-01-11T19:15:02.745Z,90.42
2019-01-11T19:20:03.089Z,90.41
2019-01-11T19:25:02.551Z,90.41
2019-01-11T19:30:02.956Z,90.51
2019-01-11T19:35:03.395Z,90.71
2019-01-11T19:40:02.816Z,90.69
2019-01-11T19:45:03.161Z,90.65
2019-01-11T19:50:03.024Z,90.65
2019-01-11T19:55:02.423Z,90.67
2019-01-11T20:00:02.855Z,90.66
2019-01-11T20:05:03.294Z,90.65
2019-01-11T20:10:02.101Z,90.64
2019-01-11T20:15:02.585Z,90.64
2019-01-11T20:20:02.978Z,90.63
2019-01-11T20:25:02.454Z,90.62
2019-01-11T20:30:02.975Z,90.62
2019-01-11T20:35:02.411Z,90.62
2019-01-11T20:40:02.841Z,90.61
2019-01-11T20:45:03.250Z,90.63
2019-01-11T20:50:02.666Z,90.63
2019-01-11T20:55:03.033Z,90.61
2019-01-11T21:00:02.539Z,90.61
2019-01-11T21:05:02.878Z,90.63
2019-01-11T21:10:03.319Z,90.62
2019-01-11T21:15:02.727Z,90.64
2019-01-11T21:20:03.155Z,90.62
2019-01-11T21:25:02.498Z,90.63
2019-01-11T21:30:02.832Z,90.63
2019-01-11T21:35:03.184Z,90.63
2019-01-11T21:40:02.618Z,90.61
2019-01-11T21:45:03.062Z,90.66
2019-01-11T21:50:02.403Z,90.65
2019-01-11T21:55:02.809Z,90.64
2019-01-11T22:00:03.180Z,90.65
2019-01-11T22:05:02.557Z,90.62
2019-01-11T22:10:03.037Z,90.64
2019-01-11T22:15:02.448Z,90.62
2019-01-11T22:20:02.868Z,90.63
2019-01-11T22:25:03.212Z,90.64
2019-01-11T22:30:02.620Z,90.61
2019-01-11T22:35:02.967Z,90.63
2019-01-11T22:40:01.740Z,90.62
2019-01-11T22:45:03.057Z,90.64
2019-01-11T22:50:02.460Z,90.63
2019-01-11T22:55:02.904Z,90.63
2019-01-11T23:00:03.339Z,90.63
2019-01-11T23:05:02.759Z,90.64
2019-01-11T23:10:03.208Z,90.66
2019-01-11T23:15:02.628Z,90.65
2019-01-11T23:20:03.088Z,90.64
2019-01-11T23:25:02.439Z,90.67
2019-01-11T23:30:02.817Z,90.67
2019-01-11T23:35:03.164Z,90.66
2019-01-11T23:40:02.574Z,90.67
2019-01-11T23:45:02.920Z,90.66
2019-01-11T23:50:03.253Z,90.67
2019-01-11T23:55:02.686Z,90.68
